Time;durP1;ratioP1;P1;durP2;ratioP2;P2;SDS_P1;SDS_P2;PMS_P1;PMS_P2;Temp;Humidity;BMP_temperature;BMP_pressure;BME280_temperature;BME280_humidity;BME280_pressure;Samples;Min_cycle;Max_cycle;Signal;HPM_P1;HPM_P2
2022/10/31 00:01:37;;;;;;;130.82;69.82;;;9.50;99.90;;;;;;5057440;28;20040;-67
2022/10/31 00:04:04;;;;;;;139.25;73.18;;;9.40;99.90;;;;;;5057485;28;20497;-67
2022/10/31 00:06:30;;;;;;;131.38;71.85;;;9.40;99.90;;;;;;5057654;28;20051;-67
2022/10/31 00:08:59;;;;;;;140.73;73.93;;;9.20;99.90;;;;;;5057465;28;20088;-67
2022/10/31 00:11:25;;;;;;;135.70;76.00;;;9.30;99.90;;;;;;5057378;28;20067;-67
2022/10/31 00:13:51;;;;;;;132.65;70.45;;;9.40;99.90;;;;;;5057354;28;20390;-67
2022/10/31 00:16:22;;;;;;;120.50;64.47;;;9.40;99.90;;;;;;5057223;28;20029;-67
2022/10/31 00:18:52;;;;;;;123.53;66.35;;;9.40;99.90;;;;;;5057370;28;20059;-67
2022/10/31 00:21:19;;;;;;;111.13;63.75;;;9.40;99.90;;;;;;5057302;28;20033;-68
2022/10/31 00:23:45;;;;;;;115.22;65.90;;;9.40;99.90;;;;;;5057133;28;20029;-67
2022/10/31 00:26:11;;;;;;;116.10;66.28;;;9.30;99.90;;;;;;5057176;28;20036;-67
2022/10/31 00:28:37;;;;;;;118.00;66.55;;;9.20;99.90;;;;;;5057064;28;20466;-68
2022/10/31 00:31:06;;;;;;;117.10;65.43;;;9.10;99.90;;;;;;5056892;28;20029;-68
2022/10/31 00:33:37;;;;;;;118.82;64.43;;;9.10;99.90;;;;;;5056938;28;20075;-67
2022/10/31 00:36:05;;;;;;;130.85;68.90;;;9.10;99.90;;;;;;5056948;28;20534;-67
2022/10/31 00:38:32;;;;;;;141.48;75.38;;;9.00;99.90;;;;;;5056852;28;20419;-67
2022/10/31 00:40:58;;;;;;;153.82;77.93;;;8.90;99.90;;;;;;5056886;28;20033;-67
2022/10/31 00:43:24;;;;;;;123.45;66.45;;;8.90;99.90;;;;;;5056721;28;20104;-68
2022/10/31 00:45:50;;;;;;;114.30;62.88;;;8.90;99.90;;;;;;5037877;28;20079;-67
2022/10/31 00:48:16;;;;;;;104.82;56.88;;;8.90;99.90;;;;;;5056754;28;20025;-67
2022/10/31 00:50:42;;;;;;;97.95;54.75;;;8.90;99.90;;;;;;5056799;28;20041;-68
2022/10/31 00:53:08;;;;;;;85.40;51.38;;;9.00;99.90;;;;;;5038785;28;20036;-67
2022/10/31 00:55:34;;;;;;;91.68;51.08;;;8.80;99.90;;;;;;5038847;28;20033;-67
2022/10/31 00:58:00;;;;;;;127.15;67.80;;;8.80;99.90;;;;;;5056471;28;20513;-67
2022/10/31 01:00:26;;;;;;;118.18;63.45;;;8.80;99.90;;;;;;5056303;28;20423;-68
2022/10/31 01:02:52;;;;;;;119.22;62.83;;;8.80;99.90;;;;;;5038345;28;20037;-68
2022/10/31 01:05:19;;;;;;;106.53;56.53;;;8.80;99.90;;;;;;5056516;28;20029;-67
2022/10/31 01:07:45;;;;;;;97.00;53.15;;;8.80;99.90;;;;;;5038482;28;20025;-67
2022/10/31 01:10:12;;;;;;;134.38;65.35;;;8.70;99.90;;;;;;5038520;28;20083;-67
2022/10/31 01:12:42;;;;;;;106.97;56.20;;;8.70;99.90;;;;;;5056105;28;20051;-67
2022/10/31 01:15:10;;;;;;;89.15;50.45;;;8.70;99.90;;;;;;5038500;28;20025;-67
2022/10/31 01:17:36;;;;;;;98.72;53.88;;;8.80;99.90;;;;;;5056391;28;20017;-67
2022/10/31 01:20:03;;;;;;;128.13;64.00;;;8.70;99.90;;;;;;5056079;28;20032;-68
2022/10/31 01:22:31;;;;;;;134.82;66.82;;;8.60;99.90;;;;;;5038008;28;20041;-67
2022/10/31 01:25:00;;;;;;;133.02;66.57;;;8.70;99.90;;;;;;5037997;28;20116;-67
2022/10/31 01:27:26;;;;;;;138.95;66.88;;;8.80;99.90;;;;;;5056088;28;20028;-67
2022/10/31 01:29:52;;;;;;;135.43;67.25;;;8.80;99.90;;;;;;5056074;28;20091;-67
2022/10/31 01:32:17;;;;;;;134.88;66.53;;;8.80;99.90;;;;;;5038017;28;20064;-67
2022/10/31 01:34:44;;;;;;;139.15;68.47;;;8.70;99.90;;;;;;5038039;28;20041;-67
2022/10/31 01:37:12;;;;;;;137.48;65.32;;;8.70;99.90;;;;;;5055877;28;20145;-67
2022/10/31 01:39:38;;;;;;;138.27;65.75;;;8.70;99.90;;;;;;5055732;28;20057;-67
2022/10/31 01:42:04;;;;;;;156.45;72.03;;;8.90;99.90;;;;;;5037972;28;20110;-67
2022/10/31 01:44:30;;;;;;;141.48;69.13;;;8.70;99.90;;;;;;5037645;28;20033;-67
2022/10/31 01:47:19;;;;;;;151.52;71.93;;;8.70;99.90;;;;;;5055728;28;20021;-67
2022/10/31 01:49:53;;;;;;;153.13;72.85;;;8.60;99.90;;;;;;5037730;28;20047;-67
2022/10/31 01:52:24;;;;;;;133.75;67.82;;;8.50;99.90;;;;;;5037708;28;20462;-68
2022/10/31 01:54:58;;;;;;;150.82;72.03;;;8.50;99.90;;;;;;5055726;28;20091;-68
2022/10/31 01:57:25;;;;;;;156.90;72.60;;;8.50;99.90;;;;;;5037323;28;20029;-67
2022/10/31 01:59:57;;;;;;;198.75;86.22;;;8.30;99.90;;;;;;5055239;28;20021;-67
2022/10/31 02:02:25;;;;;;;183.68;76.13;;;8.30;99.90;;;;;;5055230;28;20049;-68
2022/10/31 02:04:52;;;;;;;112.97;58.67;;;8.30;99.90;;;;;;5055379;28;20077;-68
2022/10/31 02:07:32;;;;;;;132.05;66.68;;;8.30;99.90;;;;;;5055332;28;20458;-68
2022/10/31 02:10:00;;;;;;;126.07;62.15;;;8.30;99.90;;;;;;5037347;28;20056;-67
2022/10/31 02:12:26;;;;;;;101.63;54.63;;;8.20;99.90;;;;;;5055118;28;20021;-67
2022/10/31 02:14:59;;;;;;;121.70;59.88;;;8.20;99.90;;;;;;5055128;28;20029;-68
2022/10/31 02:17:26;;;;;;;171.35;75.78;;;8.20;99.90;;;;;;5037286;28;20508;-67
2022/10/31 02:20:10;;;;;;;157.70;70.53;;;8.20;99.90;;;;;;5037066;28;20024;-67
2022/10/31 02:23:19;;;;;;;156.80;72.07;;;8.20;99.90;;;;;;5037131;28;20021;-68
2022/10/31 02:26:04;;;;;;;146.57;71.15;;;8.20;99.90;;;;;;5053747;28;20063;-68
2022/10/31 02:28:48;;;;;;;157.43;73.35;;;8.20;99.90;;;;;;5036939;28;20439;-68
2022/10/31 02:31:45;;;;;;;179.40;79.70;;;8.10;99.90;;;;;;5036964;28;20048;-68
2022/10/31 02:34:17;;;;;;;284.50;106.72;;;8.10;99.90;;;;;;5036836;28;20029;-67
2022/10/31 02:36:42;;;;;;;278.90;102.05;;;8.00;99.90;;;;;;5036958;28;20037;-67
2022/10/31 02:39:32;;;;;;;274.90;101.60;;;8.00;99.90;;;;;;5036667;28;20517;-67
2022/10/31 02:42:13;;;;;;;122.47;55.92;;;8.10;99.90;;;;;;5036642;28;20439;-67
2022/10/31 02:44:44;;;;;;;116.43;56.47;;;8.00;99.90;;;;;;5054653;28;20025;-68
2022/10/31 02:47:17;;;;;;;;;;;8.00;99.90;;;;;;5053741;28;20094;-67
2022/10/31 02:49:53;;;;;;;123.15;55.75;;;7.90;99.90;;;;;;5053291;28;19909;-67
2022/10/31 02:52:23;;;;;;;163.82;70.22;;;7.90;99.90;;;;;;5036926;28;20040;-67
2022/10/31 02:54:49;;;;;;;119.40;57.93;;;7.90;99.90;;;;;;5053301;28;20207;-67
2022/10/31 02:57:20;;;;;;;154.27;65.93;;;7.90;99.90;;;;;;5053240;28;20297;-67
2022/10/31 02:59:58;;;;;;;135.07;60.28;;;8.00;99.90;;;;;;5053055;28;20482;-67
2022/10/31 03:02:28;;;;;;;124.25;57.38;;;7.90;99.90;;;;;;5034378;28;20041;-67
2022/10/31 03:05:15;;;;;;;101.38;52.55;;;7.80;99.90;;;;;;5049840;28;20040;-67
2022/10/31 03:07:45;;;;;;;87.68;48.78;;;7.90;99.90;;;;;;5016862;28;20221;-68
2022/10/31 03:10:32;;;;;;;94.97;50.63;;;7.90;99.90;;;;;;5016062;28;20021;-67
2022/10/31 03:13:01;;;;;;;90.40;47.15;;;7.90;99.90;;;;;;5041973;28;20439;-67
2022/10/31 03:15:53;;;;;;;145.90;60.15;;;7.90;99.90;;;;;;5054274;28;20504;-68
2022/10/31 03:18:28;;;;;;;212.90;82.13;;;8.00;99.90;;;;;;5054428;28;20029;-67
2022/10/31 03:21:14;;;;;;;236.55;86.28;;;8.00;99.90;;;;;;5036480;28;20475;-68
2022/10/31 03:23:43;;;;;;;203.07;82.05;;;8.00;99.90;;;;;;5054056;28;20036;-67
2022/10/31 03:26:12;;;;;;;178.35;76.55;;;7.90;99.90;;;;;;5036363;28;20439;-67
2022/10/31 03:28:44;;;;;;;179.40;74.03;;;7.90;99.90;;;;;;5036336;28;20462;-67
2022/10/31 03:31:16;;;;;;;174.52;69.85;;;7.80;99.90;;;;;;5036289;28;20039;-67
2022/10/31 03:33:43;;;;;;;180.00;72.60;;;7.80;99.90;;;;;;5019830;28;20045;-68
2022/10/31 03:36:11;;;;;;;169.10;69.05;;;7.80;99.90;;;;;;5036195;28;20033;-67
2022/10/31 03:38:39;;;;;;;176.18;72.70;;;7.90;99.90;;;;;;5054061;28;20040;-67
2022/10/31 03:41:10;;;;;;;152.68;66.80;;;7.80;99.90;;;;;;5036171;28;20036;-67
2022/10/31 03:43:42;;;;;;;159.35;65.80;;;7.80;99.90;;;;;;5054031;28;20104;-67
2022/10/31 03:46:08;;;;;;;176.02;71.78;;;7.80;99.90;;;;;;5036055;28;20029;-67
2022/10/31 03:48:34;;;;;;;181.73;70.68;;;7.80;99.90;;;;;;5036059;28;20021;-67
2022/10/31 03:51:40;;;;;;;155.88;64.40;;;7.70;99.90;;;;;;5036011;28;20029;-67
2022/10/31 03:54:32;;;;;;;151.25;64.80;;;7.70;99.90;;;;;;5036065;28;20433;-67
2022/10/31 03:57:06;;;;;;;153.40;63.03;;;7.70;99.90;;;;;;5049168;28;20056;-67
2022/10/31 04:00:00;;;;;;;156.93;65.93;;;7.70;99.90;;;;;;5035926;28;20033;-67
2022/10/31 04:02:32;;;;;;;151.55;65.05;;;7.70;99.90;;;;;;5005671;28;20120;-67
2022/10/31 04:04:59;;;;;;;138.75;61.50;;;7.70;99.90;;;;;;5012951;28;20053;-67
2022/10/31 04:07:30;;;;;;;119.28;55.25;;;7.60;99.90;;;;;;5014187;28;20022;-67
2022/10/31 04:09:58;;;;;;;116.93;56.22;;;7.60;99.90;;;;;;5012961;28;20064;-67
2022/10/31 04:12:25;;;;;;;110.25;50.38;;;7.60;99.90;;;;;;5018008;28;20018;-67
2022/10/31 04:15:14;;;;;;;109.05;51.55;;;7.60;99.90;;;;;;5033719;28;20129;-67
2022/10/31 04:17:43;;;;;;;99.63;50.33;;;7.60;99.90;;;;;;5032600;28;20029;-67
2022/10/31 04:20:10;;;;;;;98.45;47.03;;;7.60;99.90;;;;;;5033445;28;20033;-67
2022/10/31 04:22:36;;;;;;;93.57;47.70;;;7.60;99.90;;;;;;5035984;28;20026;-67
2022/10/31 04:25:02;;;;;;;94.10;47.78;;;7.60;99.90;;;;;;5037144;28;20425;-67
2022/10/31 04:27:28;;;;;;;92.82;47.05;;;7.50;99.90;;;;;;5037195;28;20029;-67
2022/10/31 04:29:54;;;;;;;87.55;43.25;;;7.50;99.90;;;;;;5035979;28;20022;-67
2022/10/31 04:32:20;;;;;;;91.50;46.22;;;7.60;99.90;;;;;;5035763;28;20027;-67
2022/10/31 04:34:46;;;;;;;77.93;41.83;;;7.60;99.90;;;;;;5035657;28;20128;-67
2022/10/31 04:37:12;;;;;;;96.82;48.17;;;7.50;99.90;;;;;;5035683;28;20029;-67
2022/10/31 04:39:38;;;;;;;78.82;42.70;;;7.50;99.90;;;;;;5035815;28;20067;-67
2022/10/31 04:42:22;;;;;;;76.03;42.50;;;7.50;99.90;;;;;;5037082;28;20060;-67
2022/10/31 04:44:48;;;;;;;84.82;42.53;;;7.50;99.90;;;;;;5036916;28;20026;-67
2022/10/31 04:47:15;;;;;;;79.55;43.58;;;7.40;99.90;;;;;;5035580;28;20029;-68
2022/10/31 04:49:42;;;;;;;82.70;42.20;;;7.40;99.90;;;;;;5035588;28;20410;-67
2022/10/31 04:52:10;;;;;;;77.28;42.75;;;7.40;99.90;;;;;;5035487;28;20048;-67
2022/10/31 04:54:36;;;;;;;78.57;42.60;;;7.40;99.90;;;;;;5035431;28;20029;-67
2022/10/31 04:57:48;;;;;;;90.45;44.95;;;7.40;99.90;;;;;;5036561;28;20044;-67
2022/10/31 05:00:17;;;;;;;82.03;41.45;;;7.60;99.90;;;;;;5035497;28;20056;-67
2022/10/31 05:02:49;;;;;;;81.30;43.15;;;7.60;99.90;;;;;;5035104;28;20046;-67
2022/10/31 05:05:17;;;;;;;118.18;61.28;;;7.40;99.90;;;;;;5035120;28;20101;-67
2022/10/31 05:07:44;;;;;;;89.55;49.33;;;7.40;99.90;;;;;;5036769;28;20063;-67
2022/10/31 05:10:12;;;;;;;76.40;44.83;;;7.40;99.90;;;;;;5035125;28;20104;-67
2022/10/31 05:12:49;;;;;;;73.65;41.38;;;7.30;99.90;;;;;;5035189;28;20029;-67
2022/10/31 05:15:34;;;;;;;72.70;39.78;;;7.30;99.90;;;;;;5036581;28;20044;-67
2022/10/31 05:18:18;;;;;;;68.88;38.67;;;7.30;99.90;;;;;;5036296;28;20064;-67
2022/10/31 05:21:03;;;;;;;74.68;41.47;;;7.20;99.90;;;;;;5036545;28;20048;-67
2022/10/31 05:23:38;;;;;;;77.38;39.63;;;7.30;99.90;;;;;;5036113;28;20044;-67
2022/10/31 05:26:08;;;;;;;67.20;38.65;;;7.30;99.90;;;;;;5051814;28;20060;-67
2022/10/31 05:28:34;;;;;;;72.53;37.83;;;7.30;99.90;;;;;;5036042;28;20057;-67
2022/10/31 05:31:00;;;;;;;91.47;44.08;;;7.30;99.90;;;;;;5034674;28;20471;-67
2022/10/31 05:33:26;;;;;;;78.38;40.47;;;7.40;99.90;;;;;;5050787;28;20029;-67
2022/10/31 05:36:11;;;;;;;91.20;42.97;;;7.40;99.90;;;;;;5035921;28;20040;-67
2022/10/31 05:39:12;;;;;;;106.97;49.30;;;7.40;99.90;;;;;;5030474;28;20041;-67
2022/10/31 05:41:45;;;;;;;102.28;47.28;;;7.60;99.90;;;;;;5034438;28;20030;-67
2022/10/31 05:44:25;;;;;;;95.38;44.75;;;7.60;99.90;;;;;;5034455;28;20025;-67
2022/10/31 05:47:05;;;;;;;109.13;51.03;;;7.60;99.90;;;;;;5020765;28;20030;-67
2022/10/31 05:49:49;;;;;;;95.10;47.00;;;7.60;99.90;;;;;;5035644;28;20041;-67
2022/10/31 05:52:45;;;;;;;85.35;43.38;;;7.70;99.90;;;;;;5034361;28;20140;-67
2022/10/31 05:55:25;;;;;;;80.43;44.50;;;7.90;99.90;;;;;;5034363;28;20025;-67
2022/10/31 05:58:14;;;;;;;86.53;43.70;;;8.20;99.90;;;;;;5027201;28;20073;-67
2022/10/31 06:00:49;;;;;;;91.05;43.30;;;8.40;99.90;;;;;;5033879;28;20060;-67
2022/10/31 06:03:15;;;;;;;91.30;44.75;;;8.70;99.90;;;;;;5034028;28;20063;-67
2022/10/31 06:05:46;;;;;;;83.15;43.38;;;9.10;99.90;;;;;;5034116;28;20112;-67
2022/10/31 06:08:13;;;;;;;88.40;42.72;;;9.40;99.90;;;;;;5034047;28;20033;-67
2022/10/31 06:10:40;;;;;;;84.63;41.72;;;10.10;99.90;;;;;;5034048;28;20029;-67
2022/10/31 06:13:06;;;;;;;97.72;41.63;;;10.70;99.90;;;;;;5033845;28;20121;-67
2022/10/31 06:15:52;;;;;;;80.65;42.85;;;10.90;99.90;;;;;;5034672;28;20108;-67
2022/10/31 06:18:22;;;;;;;104.47;42.30;;;11.30;99.90;;;;;;5050619;28;20486;-68
2022/10/31 06:20:50;;;;;;;78.13;38.90;;;11.60;99.90;;;;;;5033724;28;20120;-68
2022/10/31 06:23:16;;;;;;;79.47;39.47;;;12.20;99.90;;;;;;5047489;28;20391;-67
2022/10/31 06:25:49;;;;;;;79.45;38.83;;;12.60;99.90;;;;;;5024561;28;20116;-68
2022/10/31 06:28:15;;;;;;;;;;;13.00;99.90;;;;;;5024961;28;20083;-68
2022/10/31 06:30:50;;;;;;;71.68;38.13;;;13.30;99.60;;;;;;5040019;28;19913;-68
2022/10/31 06:33:16;;;;;;;78.00;38.67;;;13.90;97.90;;;;;;5065535;28;20391;-68
2022/10/31 06:35:52;;;;;;;82.25;41.38;;;14.10;95.40;;;;;;5033003;28;20034;-68
2022/10/31 06:38:18;;;;;;;76.95;39.65;;;14.40;96.00;;;;;;5026925;28;20383;-68
2022/10/31 06:40:45;;;;;;;84.95;42.30;;;14.80;93.70;;;;;;5029489;28;20111;-68
2022/10/31 06:43:22;;;;;;;86.82;43.78;;;15.10;92.70;;;;;;5011213;28;20549;-68
2022/10/31 06:45:52;;;;;;;84.35;43.97;;;15.40;92.70;;;;;;5031593;28;20198;-68
2022/10/31 06:48:30;;;;;;;86.28;41.25;;;16.00;90.80;;;;;;5029330;28;20548;-68
2022/10/31 06:51:15;;;;;;;77.88;43.33;;;16.20;90.00;;;;;;5013982;28;20025;-68
2022/10/31 06:53:41;;;;;;;86.45;44.90;;;16.20;87.40;;;;;;5030807;28;20033;-68
2022/10/31 06:56:10;;;;;;;87.78;47.22;;;16.50;85.40;;;;;;5016317;28;20048;-68
2022/10/31 06:58:41;;;;;;;90.60;46.35;;;16.20;86.30;;;;;;5015539;28;20034;-68
2022/10/31 07:01:08;;;;;;;91.00;47.65;;;16.50;86.70;;;;;;5020786;28;20053;-69
2022/10/31 07:03:34;;;;;;;93.40;50.45;;;17.00;83.10;;;;;;5035379;28;20025;-68
2022/10/31 07:06:01;;;;;;;93.53;50.63;;;17.20;81.40;;;;;;5035802;28;20025;-68
2022/10/31 07:08:27;;;;;;;104.55;52.97;;;17.10;82.60;;;;;;5035859;28;20029;-69
2022/10/31 07:10:56;;;;;;;105.05;55.42;;;17.20;82.00;;;;;;5036163;28;20108;-69
2022/10/31 07:13:27;;;;;;;103.10;52.40;;;17.30;81.20;;;;;;5036134;28;20028;-69
2022/10/31 07:16:03;;;;;;;101.50;53.13;;;17.60;80.90;;;;;;5035433;28;20033;-69
2022/10/31 07:18:32;;;;;;;109.57;52.58;;;18.00;79.70;;;;;;5033312;28;20029;-69
2022/10/31 07:20:58;;;;;;;97.80;52.10;;;18.10;80.10;;;;;;5035150;28;20403;-69
2022/10/31 07:23:26;;;;;;;95.60;50.85;;;18.20;79.00;;;;;;5035052;28;20029;-69
2022/10/31 07:26:10;;;;;;;103.35;51.78;;;18.50;75.30;;;;;;5053770;28;20382;-69
2022/10/31 07:28:42;;;;;;;91.80;51.15;;;18.80;75.80;;;;;;5036543;28;20053;-69
2022/10/31 07:31:08;;;;;;;87.68;50.20;;;18.90;74.60;;;;;;5036773;28;20108;-69
2022/10/31 07:33:34;;;;;;;101.13;51.53;;;18.70;74.80;;;;;;5028287;28;20060;-69
2022/10/31 07:36:18;;;;;;;91.32;49.53;;;18.50;74.30;;;;;;5054069;28;20094;-69
2022/10/31 07:38:47;;;;;;;109.90;50.58;;;18.60;75.50;;;;;;5036061;28;20035;-69
2022/10/31 07:41:13;;;;;;;99.75;52.75;;;18.70;75.20;;;;;;5035566;28;20048;-69
2022/10/31 07:43:45;;;;;;;91.85;50.22;;;19.20;74.00;;;;;;5035320;28;20067;-69
2022/10/31 07:46:18;;;;;;;94.93;51.20;;;19.40;71.60;;;;;;5053830;28;20065;-69
2022/10/31 07:48:59;;;;;;;87.65;49.63;;;19.60;71.50;;;;;;5053795;28;20121;-70
2022/10/31 07:51:44;;;;;;;86.78;48.42;;;19.60;70.90;;;;;;5042309;28;20060;-70
2022/10/31 07:54:13;;;;;;;97.47;54.72;;;20.20;72.00;;;;;;5073940;28;20036;-69
2022/10/31 07:56:39;;;;;;;113.68;58.10;;;20.60;68.50;;;;;;5058847;28;20489;-70
2022/10/31 07:59:06;;;;;;;104.63;54.15;;;20.70;67.80;;;;;;5059746;28;20390;-70
2022/10/31 08:01:32;;;;;;;98.20;52.97;;;20.60;68.40;;;;;;5044485;28;20049;-70
2022/10/31 08:04:17;;;;;;;85.82;46.30;;;20.90;66.00;;;;;;5056086;28;20041;-70
2022/10/31 08:07:02;;;;;;;84.50;48.80;;;21.10;66.00;;;;;;5057648;28;20354;-70
2022/10/31 08:09:35;;;;;;;98.80;52.47;;;21.60;65.80;;;;;;5057271;28;20112;-70
2022/10/31 08:12:06;;;;;;;93.03;52.55;;;21.60;65.70;;;;;;5039382;28;20491;-70
2022/10/31 08:14:33;;;;;;;88.22;51.55;;;21.50;64.60;;;;;;5039426;28;20037;-70
2022/10/31 08:17:00;;;;;;;99.55;56.28;;;21.60;64.40;;;;;;5038684;28;20091;-71
2022/10/31 08:19:34;;;;;;;134.63;62.72;;;21.80;63.60;;;;;;5038555;28;20040;-70
2022/10/31 08:22:01;;;;;;;104.55;61.38;;;21.90;65.40;;;;;;5048540;28;20043;-70
2022/10/31 08:24:27;;;;;;;134.10;75.63;;;22.10;63.90;;;;;;5048137;28;20032;-70
2022/10/31 08:26:53;;;;;;;148.15;81.55;;;22.40;62.20;;;;;;5058473;28;20359;-70
2022/10/31 08:29:19;;;;;;;144.20;80.40;;;22.40;65.10;;;;;;5071686;28;20027;-70
2022/10/31 08:31:46;;;;;;;149.13;79.60;;;23.10;62.50;;;;;;5043113;28;20499;-70
2022/10/31 08:34:30;;;;;;;145.52;81.72;;;23.30;60.50;;;;;;5058478;28;20112;-70
2022/10/31 08:37:35;;;;;;;141.20;74.07;;;23.30;60.40;;;;;;4965179;28;20039;-70
2022/10/31 08:40:02;;;;;;;120.43;64.50;;;23.80;58.60;;;;;;4954119;28;20126;-71
2022/10/31 08:42:33;;;;;;;;;;;24.20;57.00;;;;;;4952061;28;20066;-71
2022/10/31 08:44:59;;;;;;;98.32;52.53;;;24.40;56.90;;;;;;4945097;28;19953;-70
2022/10/31 08:47:27;;;;;;;92.40;55.60;;;24.60;56.00;;;;;;4956715;28;20034;-71
2022/10/31 08:49:58;;;;;;;91.30;52.90;;;24.60;54.50;;;;;;4939844;29;20032;-71
2022/10/31 08:52:26;;;;;;;96.90;52.20;;;25.00;54.40;;;;;;4957253;28;20199;-71
2022/10/31 08:54:58;;;;;;;81.63;46.70;;;24.90;54.10;;;;;;4945360;28;20074;-71
2022/10/31 08:57:42;;;;;;;79.95;44.22;;;25.30;52.30;;;;;;4962191;28;20078;-71
2022/10/31 09:00:10;;;;;;;72.63;40.40;;;25.50;52.50;;;;;;4946377;29;20057;-71
2022/10/31 09:03:02;;;;;;;67.20;37.53;;;25.60;51.70;;;;;;4943316;28;20141;-72
2022/10/31 09:05:30;;;;;;;65.47;34.40;;;25.60;50.50;;;;;;4942113;29;20493;-70
2022/10/31 09:07:58;;;;;;;57.05;29.13;;;25.80;49.50;;;;;;4968852;28;20041;-71
2022/10/31 09:10:26;;;;;;;58.17;29.83;;;26.20;47.90;;;;;;5027761;28;20087;-70
2022/10/31 09:12:59;;;;;;;44.58;23.35;;;26.30;47.10;;;;;;5029945;28;20487;-70
2022/10/31 09:18:54;;;;;;;39.47;20.80;;;26.80;42.90;;;;;;5037528;28;20033;-70
2022/10/31 09:21:23;;;;;;;59.15;23.77;;;27.20;43.80;;;;;;5037211;28;20037;-71
2022/10/31 09:23:53;;;;;;;52.40;23.95;;;27.50;44.30;;;;;;5031496;28;20025;-71
2022/10/31 09:26:20;;;;;;;48.88;25.70;;;27.60;42.80;;;;;;5054996;28;20028;-71
2022/10/31 09:28:57;;;;;;;44.17;23.55;;;27.00;42.30;;;;;;5017939;28;20116;-71
2022/10/31 09:31:23;;;;;;;41.78;22.52;;;27.40;41.70;;;;;;5015296;28;20030;-71
2022/10/31 09:34:12;;;;;;;54.05;25.73;;;26.90;42.70;;;;;;5050824;28;20121;-71
2022/10/31 09:37:01;;;;;;;48.25;25.05;;;27.70;42.00;;;;;;5034838;28;20114;-71
2022/10/31 09:39:27;;;;;;;52.60;27.90;;;27.60;41.20;;;;;;5020066;28;20037;-71
2022/10/31 09:42:28;;;;;;;52.83;28.80;;;27.80;42.60;;;;;;5049192;28;20032;-72
2022/10/31 09:45:15;;;;;;;61.08;26.40;;;28.00;42.50;;;;;;5041622;28;20071;-71
2022/10/31 09:48:07;;;;;;;55.28;25.98;;;28.30;40.70;;;;;;5028199;28;20014;-72
2022/10/31 09:50:42;;;;;;;52.33;25.48;;;28.60;40.20;;;;;;5041633;28;20064;-71
2022/10/31 09:53:43;;;;;;;53.72;26.23;;;29.00;40.10;;;;;;4998015;28;20042;-72
2022/10/31 09:56:15;;;;;;;48.20;25.88;;;28.90;40.80;;;;;;5006127;28;20025;-72
2022/10/31 09:58:47;;;;;;;47.95;26.30;;;28.80;39.50;;;;;;5049949;28;20033;-73
2022/10/31 10:01:42;;;;;;;51.78;24.92;;;29.00;42.10;;;;;;5042551;28;20049;-73
2022/10/31 10:04:30;;;;;;;57.63;28.98;;;29.30;39.40;;;;;;5053194;28;20107;-72
2022/10/31 10:07:30;;;;;;;55.63;31.35;;;29.30;39.30;;;;;;5036108;28;20055;-73
2022/10/31 10:10:24;;;;;;;51.20;27.95;;;28.10;39.90;;;;;;5053921;28;20130;-73
2022/10/31 10:13:46;;;;;;;56.97;26.25;;;28.70;40.80;;;;;;5027303;28;20071;-73
2022/10/31 10:16:43;;;;;;;53.00;26.27;;;29.40;40.70;;;;;;5062983;28;20017;-73
2022/10/31 10:19:12;;;;;;;47.78;23.73;;;29.50;38.60;;;;;;5061852;28;20029;-73
2022/10/31 10:21:54;;;;;;;60.15;25.60;;;30.30;37.80;;;;;;5060911;28;20414;-73
2022/10/31 10:24:48;;;;;;;59.63;27.50;;;30.30;36.60;;;;;;5051318;28;20029;-73
2022/10/31 10:27:32;;;;;;;60.42;27.45;;;30.10;36.70;;;;;;5054245;28;20083;-73
2022/10/31 10:30:20;;;;;;;58.28;24.98;;;30.60;36.30;;;;;;5053523;28;20086;-73
2022/10/31 10:32:52;;;;;;;56.60;26.40;;;30.80;35.30;;;;;;5045649;28;20040;-73
2022/10/31 10:35:34;;;;;;;57.97;26.67;;;30.70;36.10;;;;;;5054309;28;20086;-72
2022/10/31 10:38:32;;;;;;;66.18;28.90;;;31.00;34.30;;;;;;5047392;28;20073;-73
2022/10/31 10:41:02;;;;;;;62.10;30.58;;;30.70;35.10;;;;;;5029372;28;20103;-73
2022/10/31 10:43:36;;;;;;;61.15;32.65;;;30.40;34.30;;;;;;5034454;28;20034;-73
2022/10/31 10:49:29;;;;;;;74.97;39.92;;;30.50;35.20;;;;;;5050462;28;20025;-73
2022/10/31 10:52:19;;;;;;;69.03;40.30;;;30.90;34.00;;;;;;5056397;28;20029;-73
2022/10/31 10:55:08;;;;;;;75.90;39.33;;;30.90;34.20;;;;;;5052133;28;20052;-73
2022/10/31 10:57:56;;;;;;;67.45;34.72;;;30.80;34.40;;;;;;5059243;28;20378;-73
2022/10/31 11:00:27;;;;;;;69.75;40.42;;;31.20;33.90;;;;;;5052905;28;20079;-73
2022/10/31 11:02:53;;;;;;;79.63;39.10;;;31.10;33.50;;;;;;5050739;28;20048;-73
2022/10/31 11:05:28;;;;;;;82.10;41.78;;;31.00;33.70;;;;;;5051872;28;20044;-74
2022/10/31 11:07:54;;;;;;;75.13;40.38;;;31.20;32.60;;;;;;5053029;28;20033;-74
2022/10/31 11:10:20;;;;;;;74.50;44.67;;;31.30;32.40;;;;;;5053497;28;20111;-74
2022/10/31 11:13:13;;;;;;;87.53;43.17;;;31.70;33.40;;;;;;5052484;28;20080;-73
2022/10/31 11:16:02;;;;;;;80.70;43.80;;;32.00;33.00;;;;;;5053991;28;20021;-73
2022/10/31 11:18:39;;;;;;;76.80;45.72;;;32.30;31.80;;;;;;5053907;28;20028;-73
2022/10/31 11:21:05;;;;;;;92.38;45.72;;;32.20;31.90;;;;;;5053990;28;20029;-74
2022/10/31 11:23:32;;;;;;;75.45;40.70;;;32.30;32.40;;;;;;5053678;28;20486;-74
2022/10/31 11:26:01;;;;;;;71.25;41.13;;;32.20;33.60;;;;;;5046750;28;20029;-74
2022/10/31 11:28:34;;;;;;;83.55;42.22;;;32.40;32.00;;;;;;5052121;28;20021;-74
2022/10/31 11:31:11;;;;;;;90.65;46.17;;;31.60;32.90;;;;;;5036050;28;20491;-74
2022/10/31 11:34:02;;;;;;;87.80;47.72;;;31.50;34.00;;;;;;5038016;28;20433;-74
2022/10/31 11:36:31;;;;;;;92.35;49.17;;;31.70;32.70;;;;;;5028049;28;20172;-74
2022/10/31 11:39:00;;;;;;;85.00;46.92;;;32.10;31.00;;;;;;5051517;28;20032;-74
2022/10/31 11:41:34;;;;;;;90.40;45.50;;;32.00;33.00;;;;;;5058135;28;20033;-73
2022/10/31 11:44:04;;;;;;;79.25;40.50;;;32.30;31.90;;;;;;5057430;28;20513;-74
2022/10/31 11:46:33;;;;;;;;;;;32.30;31.90;;;;;;5058195;28;20025;-74
2022/10/31 11:48:59;;;;;;;75.78;40.55;;;32.30;31.80;;;;;;5057654;28;19944;-73
2022/10/31 11:51:29;;;;;;;69.45;35.20;;;31.70;32.50;;;;;;5055027;28;20028;-74
2022/10/31 11:53:58;;;;;;;65.55;34.13;;;31.70;32.50;;;;;;5053812;28;20039;-74
2022/10/31 11:56:24;;;;;;;64.40;33.83;;;31.70;33.00;;;;;;5054765;28;20391;-73
2022/10/31 11:59:02;;;;;;;53.53;31.00;;;31.10;33.20;;;;;;5050035;28;20041;-73
2022/10/31 12:01:30;;;;;;;67.65;32.17;;;31.20;33.80;;;;;;5050860;28;20097;-73
2022/10/31 12:04:09;;;;;;;63.83;32.30;;;31.30;33.90;;;;;;5056778;28;20060;-73
2022/10/31 12:06:36;;;;;;;67.88;33.13;;;31.70;32.50;;;;;;5057332;28;20057;-73
2022/10/31 12:09:17;;;;;;;74.00;28.25;;;31.90;32.40;;;;;;5037217;28;20032;-74
2022/10/31 12:12:11;;;;;;;71.63;32.00;;;31.90;29.20;;;;;;5055733;28;20017;-73
2022/10/31 12:14:55;;;;;;;78.22;30.92;;;32.30;32.30;;;;;;5037225;28;20039;-73
2022/10/31 12:17:31;;;;;;;70.80;31.73;;;32.60;30.00;;;;;;5037256;28;20025;-73
2022/10/31 12:20:33;;;;;;;64.47;30.58;;;32.20;30.90;;;;;;5048255;28;20099;-73
2022/10/31 12:23:06;;;;;;;75.57;32.08;;;32.20;31.20;;;;;;5008854;28;20040;-73
2022/10/31 12:25:51;;;;;;;62.75;29.05;;;32.40;30.00;;;;;;5056804;28;20040;-73
2022/10/31 12:28:44;;;;;;;67.80;29.08;;;32.70;28.90;;;;;;5056881;28;20033;-73
2022/10/31 12:31:28;;;;;;;76.15;29.75;;;32.60;29.70;;;;;;5057044;28;20025;-73
2022/10/31 12:34:31;;;;;;;62.85;28.30;;;32.50;29.80;;;;;;5056719;28;20063;-73
2022/10/31 12:37:36;;;;;;;72.53;29.20;;;32.90;29.10;;;;;;5056673;28;20079;-73
2022/10/31 12:40:18;;;;;;;56.85;26.27;;;32.30;29.70;;;;;;4949412;28;20454;-73
2022/10/31 12:43:05;;;;;;;64.03;25.13;;;32.30;29.00;;;;;;5052018;28;20368;-73
2022/10/31 12:45:54;;;;;;;47.40;25.42;;;32.30;30.00;;;;;;5054576;28;20037;-73
2022/10/31 12:48:31;;;;;;;55.33;26.50;;;31.90;28.70;;;;;;5062994;28;20024;-73
2022/10/31 12:51:00;;;;;;;50.33;24.60;;;32.20;29.00;;;;;;5059297;28;20053;-74
2022/10/31 12:54:11;;;;;;;60.13;26.10;;;32.40;29.80;;;;;;5036289;28;20357;-75
2022/10/31 12:57:02;;;;;;;57.05;25.77;;;31.90;28.90;;;;;;5034235;28;20399;-74
2022/10/31 12:59:47;;;;;;;56.80;24.77;;;32.10;29.40;;;;;;5036222;28;20021;-74
2022/10/31 13:02:22;;;;;;;61.78;24.20;;;32.00;30.00;;;;;;5035296;28;20045;-74
2022/10/31 13:04:54;;;;;;;53.72;24.27;;;31.70;30.00;;;;;;5036156;28;20059;-74
2022/10/31 13:07:40;;;;;;;48.83;25.02;;;31.70;29.50;;;;;;5036104;28;20028;-74
2022/10/31 13:10:12;;;;;;;59.33;24.50;;;32.10;29.20;;;;;;5040406;28;20082;-73
2022/10/31 13:12:40;;;;;;;56.45;22.25;;;32.20;30.60;;;;;;5052148;28;20021;-74